createdAt,value
2018-10-18T00:00:44.994Z,6.40
2018-10-18T00:06:20.195Z,6.40
2018-10-18T00:08:48.099Z,6.40
2018-10-18T00:11:15.975Z,6.30
2018-10-18T00:13:43.780Z,6.40
2018-10-18T00:16:11.705Z,6.30
2018-10-18T00:18:39.677Z,6.30
2018-10-18T00:21:07.429Z,6.30
2018-10-18T00:23:35.459Z,6.30
2018-10-18T00:26:03.317Z,6.30
2018-10-18T00:28:31.381Z,6.20
2018-10-18T00:30:59.402Z,6.20
2018-10-18T00:33:27.341Z,6.20
2018-10-18T00:35:55.290Z,6.20
2018-10-18T00:38:23.325Z,6.20
2018-10-18T00:40:51.249Z,6.10
2018-10-18T00:43:19.145Z,6.10
2018-10-18T00:45:47.124Z,6.10
2018-10-18T00:48:15.158Z,6.00
2018-10-18T00:50:42.842Z,6.00
2018-10-18T00:53:10.855Z,6.00
2018-10-18T00:55:38.664Z,6.00
2018-10-18T00:58:06.483Z,6.00
2018-10-18T01:00:34.329Z,5.90
2018-10-18T01:03:02.121Z,5.90
2018-10-18T01:05:30.054Z,5.80
2018-10-18T01:07:57.895Z,5.90
2018-10-18T01:10:25.872Z,5.80
2018-10-18T01:12:53.836Z,5.80
2018-10-18T01:15:22.002Z,5.70
2018-10-18T01:17:49.852Z,5.70
2018-10-18T01:20:17.674Z,5.70
2018-10-18T01:22:45.512Z,5.70
2018-10-18T01:25:13.429Z,5.70
2018-10-18T01:27:41.434Z,5.80
2018-10-18T01:30:09.507Z,5.80
2018-10-18T01:32:37.296Z,5.80
2018-10-18T01:35:05.806Z,5.70
2018-10-18T01:37:33.662Z,5.70
2018-10-18T01:40:01.637Z,5.70
2018-10-18T01:42:29.749Z,5.60
2018-10-18T01:44:57.653Z,5.60
2018-10-18T01:47:25.724Z,5.60
2018-10-18T01:49:53.648Z,5.60
2018-10-18T01:52:21.775Z,5.60
2018-10-18T01:54:49.666Z,5.60
2018-10-18T01:57:17.671Z,5.60
2018-10-18T01:59:45.440Z,5.60
2018-10-18T02:02:13.368Z,5.60
2018-10-18T02:04:41.157Z,5.60
2018-10-18T02:07:10.333Z,5.60
2018-10-18T02:09:38.344Z,5.50
2018-10-18T02:12:07.106Z,5.50
2018-10-18T02:14:35.067Z,5.50
2018-10-18T02:17:03.042Z,5.50
2018-10-18T02:19:30.949Z,5.40
2018-10-18T02:21:59.015Z,5.40
2018-10-18T02:24:26.867Z,5.30
2018-10-18T02:26:54.766Z,5.30
2018-10-18T02:29:22.627Z,5.30
2018-10-18T02:31:50.432Z,5.40
2018-10-18T02:34:18.362Z,5.40
2018-10-18T02:36:46.388Z,5.40
2018-10-18T02:39:14.149Z,5.30
2018-10-18T02:41:42.021Z,5.30
2018-10-18T02:44:09.850Z,5.30
2018-10-18T02:46:37.834Z,5.30
2018-10-18T02:49:05.681Z,5.30
2018-10-18T02:51:33.852Z,5.20
2018-10-18T02:54:01.746Z,5.30
2018-10-18T02:56:29.639Z,5.20
2018-10-18T02:58:57.762Z,5.20
2018-10-18T03:01:25.634Z,5.20
2018-10-18T03:03:53.423Z,5.10
2018-10-18T03:06:21.365Z,5.10
2018-10-18T03:08:49.109Z,5.10
2018-10-18T03:11:17.259Z,5.10
2018-10-18T03:13:45.506Z,5.10
2018-10-18T03:16:13.537Z,5.00
2018-10-18T03:18:41.348Z,5.10
2018-10-18T03:21:09.112Z,5.00
2018-10-18T03:23:36.913Z,5.00
2018-10-18T03:26:04.871Z,5.00
2018-10-18T03:28:33.034Z,5.00
2018-10-18T03:31:00.862Z,5.00
2018-10-18T03:33:29.029Z,5.00
2018-10-18T03:35:57.260Z,4.90
2018-10-18T03:38:25.274Z,4.90
2018-10-18T03:40:53.154Z,5.00
2018-10-18T03:43:21.265Z,5.00
2018-10-18T03:45:49.398Z,5.00
2018-10-18T03:48:17.561Z,5.00
2018-10-18T03:50:45.590Z,4.90
2018-10-18T03:53:13.395Z,4.90
2018-10-18T03:55:41.598Z,4.90
2018-10-18T03:58:09.555Z,4.90
2018-10-18T04:00:37.546Z,4.90
2018-10-18T04:03:05.459Z,4.90
2018-10-18T04:05:33.401Z,4.90
2018-10-18T04:08:01.308Z,4.80
2018-10-18T04:10:29.301Z,4.80
2018-10-18T04:12:57.273Z,4.80
2018-10-18T04:15:24.967Z,4.80
2018-10-18T04:17:52.723Z,4.80
2018-10-18T04:20:20.776Z,4.80
2018-10-18T04:22:49.288Z,4.80
2018-10-18T04:25:17.305Z,4.80
2018-10-18T04:27:45.147Z,4.80
2018-10-18T04:30:13.066Z,4.80
2018-10-18T04:32:41.105Z,4.90
2018-10-18T04:35:09.013Z,4.90
2018-10-18T04:37:37.189Z,4.90
2018-10-18T04:40:05.842Z,4.90
2018-10-18T04:42:34.126Z,4.90
2018-10-18T04:45:01.997Z,4.90
2018-10-18T04:47:29.983Z,4.90
2018-10-18T04:49:57.608Z,4.90
2018-10-18T04:52:25.713Z,4.90
2018-10-18T04:54:53.578Z,4.90
2018-10-18T04:57:21.538Z,4.90
2018-10-18T04:59:49.591Z,4.90
2018-10-18T05:02:17.645Z,4.80
2018-10-18T05:04:56.974Z,4.80
2018-10-18T05:07:25.217Z,4.90
2018-10-18T05:09:53.273Z,4.80
2018-10-18T05:12:21.526Z,4.80
2018-10-18T05:14:50.075Z,4.80
2018-10-18T05:17:18.819Z,4.70
2018-10-18T05:19:46.751Z,4.80
2018-10-18T05:22:14.923Z,4.80
2018-10-18T05:24:42.688Z,4.80
2018-10-18T05:27:10.713Z,4.80
2018-10-18T05:29:38.670Z,4.80
2018-10-18T05:32:06.947Z,4.80
2018-10-18T05:34:34.778Z,4.80
2018-10-18T05:37:02.720Z,4.80
2018-10-18T05:39:30.540Z,4.80
2018-10-18T05:41:58.608Z,4.80
2018-10-18T05:44:26.453Z,4.80
2018-10-18T05:46:54.425Z,4.90
2018-10-18T05:49:22.446Z,4.90
2018-10-18T05:51:50.340Z,4.90
2018-10-18T05:54:18.356Z,5.00
2018-10-18T05:56:46.146Z,5.00
2018-10-18T05:59:14.237Z,5.00
2018-10-18T06:01:42.200Z,5.10
2018-10-18T06:04:10.326Z,5.10
2018-10-18T06:06:38.446Z,5.20
2018-10-18T06:09:10.328Z,5.20
2018-10-18T06:11:38.307Z,5.30
2018-10-18T06:14:06.703Z,5.40
2018-10-18T06:16:35.407Z,5.40
2018-10-18T06:19:03.673Z,5.50
2018-10-18T06:21:36.437Z,5.50
2018-10-18T06:24:05.167Z,5.50
2018-10-18T06:26:34.458Z,5.60
2018-10-18T06:29:02.868Z,5.70
2018-10-18T06:31:31.248Z,5.70
2018-10-18T06:34:01.401Z,5.80
2018-10-18T06:36:32.169Z,5.80
2018-10-18T06:39:01.360Z,5.90
2018-10-18T06:41:31.175Z,5.90
2018-10-18T06:44:00.822Z,6.00
2018-10-18T06:46:30.748Z,6.10
2018-10-18T06:48:58.688Z,6.20
2018-10-18T06:51:26.700Z,6.20
2018-10-18T06:53:55.808Z,6.30
2018-10-18T06:56:23.723Z,6.40
2018-10-18T06:58:52.148Z,6.40
2018-10-18T07:01:20.780Z,6.50
2018-10-18T07:03:50.330Z,6.70
2018-10-18T07:06:18.447Z,6.80
2018-10-18T07:08:46.387Z,7.00
2018-10-18T07:11:14.487Z,7.10
2018-10-18T07:13:42.569Z,7.20
2018-10-18T07:16:10.701Z,7.40
2018-10-18T07:18:38.722Z,7.50
2018-10-18T07:21:07.996Z,7.60
2018-10-18T07:23:36.019Z,7.70
2018-10-18T07:26:05.535Z,7.80
2018-10-18T07:28:34.131Z,7.90
2018-10-18T07:31:02.787Z,8.10
2018-10-18T07:33:30.657Z,8.30
2018-10-18T07:35:58.591Z,8.40
2018-10-18T07:38:26.428Z,8.60
2018-10-18T07:40:54.308Z,8.70
2018-10-18T07:43:22.210Z,8.90
2018-10-18T07:45:51.322Z,9.00
2018-10-18T07:48:21.552Z,9.20
2018-10-18T07:50:49.901Z,9.30
2018-10-18T07:53:19.217Z,9.40
2018-10-18T07:55:47.089Z,9.50
2018-10-18T07:58:15.101Z,9.60
2018-10-18T08:00:45.041Z,9.80
2018-10-18T08:03:14.983Z,10.00
2018-10-18T08:05:42.995Z,10.20
2018-10-18T08:08:12.463Z,10.40
2018-10-18T08:10:42.373Z,10.70
2018-10-18T08:13:11.436Z,10.90
2018-10-18T08:15:40.565Z,11.00
2018-10-18T08:18:08.820Z,11.10
2018-10-18T08:20:36.833Z,11.10
2018-10-18T08:23:04.986Z,11.10
2018-10-18T08:25:32.883Z,11.20
2018-10-18T08:28:00.992Z,11.30
2018-10-18T08:30:29.209Z,11.30
2018-10-18T08:32:57.271Z,11.40
2018-10-18T08:35:25.425Z,11.50
2018-10-18T08:37:53.940Z,11.70
2018-10-18T08:40:22.770Z,11.80
2018-10-18T08:42:51.556Z,12.00
2018-10-18T08:45:20.116Z,12.20
2018-10-18T08:47:48.507Z,12.30
2018-10-18T08:50:23.147Z,12.40
2018-10-18T08:52:51.553Z,12.60
2018-10-18T08:55:20.138Z,12.80
2018-10-18T08:57:48.205Z,13.00
2018-10-18T09:00:16.615Z,13.20
2018-10-18T09:02:44.869Z,13.30
2018-10-18T09:05:15.107Z,13.50
2018-10-18T09:07:43.348Z,13.60
2018-10-18T09:10:12.018Z,13.70
2018-10-18T09:12:39.915Z,13.70
2018-10-18T09:15:08.840Z,13.80
2018-10-18T09:17:37.041Z,13.80
2018-10-18T09:20:05.476Z,13.80
2018-10-18T09:22:33.623Z,13.90
2018-10-18T09:25:01.735Z,13.90
2018-10-18T09:27:29.540Z,14.00
2018-10-18T09:29:57.648Z,14.10
2018-10-18T09:32:25.956Z,14.20
2018-10-18T09:34:53.750Z,14.30
2018-10-18T09:37:21.729Z,14.30
2018-10-18T09:39:49.806Z,14.40
2018-10-18T09:42:17.752Z,14.40
2018-10-18T09:44:45.697Z,14.30
2018-10-18T09:47:13.550Z,14.50
2018-10-18T09:49:41.411Z,14.60
2018-10-18T09:52:09.619Z,14.80
2018-10-18T09:54:37.606Z,14.90
2018-10-18T09:57:05.717Z,15.10
2018-10-18T09:59:33.897Z,15.00
2018-10-18T10:02:07.282Z,15.10
2018-10-18T10:04:35.293Z,15.00
2018-10-18T10:07:03.542Z,15.10
2018-10-18T10:09:31.515Z,15.10
2018-10-18T10:11:59.564Z,15.20
2018-10-18T10:14:28.526Z,15.30
2018-10-18T10:16:56.693Z,15.30
2018-10-18T10:19:24.732Z,15.30
2018-10-18T10:21:52.800Z,15.30
2018-10-18T10:24:21.503Z,15.40
2018-10-18T10:26:49.343Z,15.50
2018-10-18T10:29:17.275Z,15.60
2018-10-18T10:31:45.606Z,15.70
2018-10-18T10:34:13.941Z,15.70
2018-10-18T10:36:42.025Z,15.70
2018-10-18T10:39:10.689Z,15.80
2018-10-18T10:41:38.600Z,15.90
2018-10-18T10:44:08.108Z,16.00
2018-10-18T10:46:38.911Z,16.00
2018-10-18T10:49:07.043Z,16.10
2018-10-18T10:51:35.508Z,16.10
2018-10-18T10:54:04.070Z,16.10
2018-10-18T10:56:32.761Z,16.00
2018-10-18T10:59:02.928Z,15.90
2018-10-18T11:01:31.209Z,16.00
2018-10-18T11:03:59.664Z,16.00
2018-10-18T11:06:27.662Z,16.00
2018-10-18T11:08:55.610Z,16.10
2018-10-18T11:11:23.864Z,16.10
2018-10-18T11:13:52.302Z,16.30
2018-10-18T11:16:20.291Z,16.40
2018-10-18T11:18:48.564Z,16.50
2018-10-18T11:21:17.811Z,16.60
2018-10-18T11:23:45.846Z,16.60
2018-10-18T11:26:13.823Z,16.70
2018-10-18T11:28:41.715Z,16.70
2018-10-18T11:31:09.545Z,16.60
2018-10-18T11:33:37.559Z,16.40
2018-10-18T11:36:05.584Z,16.30
2018-10-18T11:38:33.530Z,16.20
2018-10-18T11:41:01.528Z,16.10
2018-10-18T11:43:29.653Z,16.00
2018-10-18T11:45:57.773Z,15.90
2018-10-18T11:48:25.951Z,15.80
2018-10-18T11:50:53.883Z,15.70
2018-10-18T11:53:21.732Z,15.60
2018-10-18T11:55:49.938Z,15.50
2018-10-18T11:58:17.839Z,15.40
2018-10-18T12:00:46.100Z,15.40
2018-10-18T12:03:14.001Z,15.40
2018-10-18T12:05:42.108Z,15.40
2018-10-18T12:08:10.117Z,15.40
2018-10-18T12:10:38.275Z,15.40
2018-10-18T12:13:06.964Z,15.50
2018-10-18T12:15:35.676Z,15.60
2018-10-18T12:18:04.381Z,15.50
2018-10-18T12:20:33.104Z,15.50
2018-10-18T12:23:01.149Z,15.50
2018-10-18T12:25:29.341Z,15.60
2018-10-18T12:27:57.557Z,15.50
2018-10-18T12:30:25.858Z,15.50
2018-10-18T12:32:54.169Z,15.40
2018-10-18T12:35:22.023Z,15.40
2018-10-18T12:37:49.984Z,15.40
2018-10-18T12:40:17.933Z,15.40
2018-10-18T12:42:47.030Z,15.40
2018-10-18T12:45:14.962Z,15.30
2018-10-18T12:47:42.918Z,15.30
2018-10-18T12:50:11.033Z,15.20
2018-10-18T12:52:39.958Z,15.20
2018-10-18T12:55:08.137Z,15.20
2018-10-18T12:57:36.265Z,15.20
2018-10-18T13:00:05.026Z,15.20
2018-10-18T13:02:33.338Z,15.20
2018-10-18T13:05:01.682Z,15.20
2018-10-18T13:07:29.554Z,15.20
2018-10-18T13:09:57.738Z,15.20
2018-10-18T13:12:26.708Z,15.20
2018-10-18T13:14:55.145Z,15.10
2018-10-18T13:17:24.136Z,15.20
2018-10-18T13:19:52.117Z,15.20
2018-10-18T13:22:20.388Z,15.30
2018-10-18T13:24:48.687Z,15.20
2018-10-18T13:27:16.670Z,15.30
2018-10-18T13:29:44.779Z,15.30
2018-10-18T13:32:12.932Z,15.30
2018-10-18T13:34:40.816Z,15.30
2018-10-18T13:37:08.849Z,15.30
2018-10-18T13:39:36.953Z,15.40
2018-10-18T13:42:05.450Z,15.40
2018-10-18T13:44:33.741Z,15.40
2018-10-18T13:47:01.871Z,15.30
2018-10-18T13:49:30.016Z,15.30
2018-10-18T13:51:59.491Z,15.20
2018-10-18T13:54:27.983Z,15.20
2018-10-18T13:56:56.163Z,15.30
2018-10-18T13:59:35.731Z,15.40
2018-10-18T14:02:04.274Z,15.40
2018-10-18T14:04:32.333Z,15.40
2018-10-18T14:07:01.167Z,15.40
2018-10-18T14:09:29.861Z,15.40
2018-10-18T14:11:58.033Z,15.40
2018-10-18T14:14:26.437Z,15.40
2018-10-18T14:16:55.122Z,15.50
2018-10-18T14:19:23.511Z,15.50
2018-10-18T14:21:51.470Z,15.50
2018-10-18T14:24:19.545Z,15.50
2018-10-18T14:26:47.575Z,15.50
2018-10-18T14:29:15.673Z,15.50
2018-10-18T14:31:44.399Z,15.40
2018-10-18T14:34:12.538Z,15.50
2018-10-18T14:36:40.691Z,15.50
2018-10-18T14:39:10.323Z,15.40
2018-10-18T14:41:38.428Z,15.50
2018-10-18T14:44:06.721Z,15.40
2018-10-18T14:46:36.589Z,15.30
2018-10-18T14:49:06.748Z,15.30
2018-10-18T14:51:35.700Z,15.20
2018-10-18T14:54:04.019Z,15.10
2018-10-18T14:56:32.239Z,15.10
2018-10-18T14:59:00.265Z,15.10
2018-10-18T15:01:28.260Z,15.00
2018-10-18T15:03:56.988Z,15.00
2018-10-18T15:06:25.002Z,14.90
2018-10-18T15:08:53.875Z,14.90
2018-10-18T15:11:21.911Z,14.90
2018-10-18T15:13:50.275Z,14.80
2018-10-18T15:16:18.665Z,14.80
2018-10-18T15:18:46.671Z,14.80
2018-10-18T15:21:14.821Z,14.80
2018-10-18T15:23:43.065Z,14.80
2018-10-18T15:26:11.450Z,14.80
2018-10-18T15:28:39.541Z,14.70
2018-10-18T15:31:07.531Z,14.80
2018-10-18T15:33:35.678Z,14.80
2018-10-18T15:36:03.988Z,14.80
2018-10-18T15:38:32.277Z,14.70
2018-10-18T15:41:00.154Z,14.80
2018-10-18T15:43:28.336Z,14.70
2018-10-18T15:45:57.088Z,14.80
2018-10-18T15:48:25.574Z,14.70
2018-10-18T15:50:53.891Z,14.70
2018-10-18T15:53:21.830Z,14.60
2018-10-18T15:55:50.007Z,14.60
2018-10-18T15:58:18.227Z,14.50
2018-10-18T16:00:47.141Z,14.50
2018-10-18T16:03:15.051Z,14.50
2018-10-18T16:05:43.076Z,14.40
2018-10-18T16:08:11.073Z,14.40
2018-10-18T16:10:39.190Z,14.40
2018-10-18T16:13:07.290Z,14.40
2018-10-18T16:15:36.118Z,14.30
2018-10-18T16:18:03.997Z,14.30
2018-10-18T16:20:32.141Z,14.20
2018-10-18T16:23:01.307Z,14.20
2018-10-18T16:25:29.640Z,14.20
2018-10-18T16:27:57.708Z,14.20
2018-10-18T16:30:25.825Z,14.20
2018-10-18T16:32:54.194Z,14.20
2018-10-18T16:35:22.337Z,14.20
2018-10-18T16:37:50.548Z,14.20
2018-10-18T16:40:19.302Z,14.20
2018-10-18T16:42:50.195Z,14.20
2018-10-18T16:45:18.536Z,14.20
2018-10-18T16:47:46.822Z,14.10
2018-10-18T16:50:15.004Z,14.10
2018-10-18T16:52:43.755Z,14.10
2018-10-18T16:55:11.597Z,14.00
2018-10-18T16:57:43.717Z,14.00
2018-10-18T17:00:14.222Z,14.00
2018-10-18T17:02:43.094Z,14.00
2018-10-18T17:05:11.229Z,13.90
2018-10-18T17:07:39.550Z,13.90
2018-10-18T17:10:07.846Z,13.90
2018-10-18T17:12:36.586Z,13.90
2018-10-18T17:15:06.048Z,13.90
2018-10-18T17:17:34.806Z,13.90
2018-10-18T17:20:03.170Z,13.80
2018-10-18T17:22:31.842Z,13.80
2018-10-18T17:24:59.881Z,13.80
2018-10-18T17:27:28.264Z,13.80
2018-10-18T17:29:56.515Z,13.80
2018-10-18T17:32:25.211Z,13.70
2018-10-18T17:34:53.237Z,13.70
2018-10-18T17:37:21.236Z,13.70
2018-10-18T17:39:49.196Z,13.70
2018-10-18T17:42:17.076Z,13.70
2018-10-18T17:44:44.931Z,13.70
2018-10-18T17:47:12.929Z,13.60
2018-10-18T17:49:41.179Z,13.60
2018-10-18T17:52:09.313Z,13.60
2018-10-18T17:54:37.904Z,13.60
2018-10-18T17:57:06.209Z,13.60
2018-10-18T17:59:34.361Z,13.50
2018-10-18T18:02:02.243Z,13.50
2018-10-18T18:04:30.405Z,13.40
2018-10-18T18:06:58.741Z,13.40
2018-10-18T18:09:27.210Z,13.40
2018-10-18T18:11:55.887Z,13.40
2018-10-18T18:14:26.402Z,13.40
2018-10-18T18:16:54.678Z,13.40
2018-10-18T18:19:23.277Z,13.30
2018-10-18T18:21:51.266Z,13.30
2018-10-18T18:24:19.277Z,13.30
2018-10-18T18:26:47.283Z,13.30
2018-10-18T18:29:15.118Z,13.30
2018-10-18T18:31:43.963Z,13.30
2018-10-18T18:34:11.834Z,13.30
2018-10-18T18:36:40.599Z,13.30
2018-10-18T18:39:10.468Z,13.30
2018-10-18T18:41:38.954Z,13.30
2018-10-18T18:44:07.418Z,13.30
2018-10-18T18:46:37.494Z,13.30
2018-10-18T18:49:06.699Z,13.20
2018-10-18T18:51:35.782Z,13.20
2018-10-18T18:54:04.126Z,13.20
2018-10-18T18:56:32.250Z,13.10
2018-10-18T18:59:00.369Z,13.10
2018-10-18T19:01:28.452Z,13.10
2018-10-18T19:03:57.456Z,13.00
2018-10-18T19:06:25.787Z,13.00
2018-10-18T19:08:54.446Z,13.00
2018-10-18T19:11:22.498Z,13.00
2018-10-18T19:13:50.927Z,12.90
2018-10-18T19:16:19.007Z,13.00
2018-10-18T19:18:47.782Z,12.90
2018-10-18T19:21:16.737Z,12.90
2018-10-18T19:23:45.415Z,12.90
2018-10-18T19:26:13.942Z,12.90
2018-10-18T19:28:43.877Z,12.80
2018-10-18T19:31:11.948Z,12.80
2018-10-18T19:33:39.955Z,12.80
2018-10-18T19:36:08.325Z,12.80
2018-10-18T19:38:37.029Z,12.80
2018-10-18T19:41:05.158Z,12.70
2018-10-18T19:43:34.312Z,12.80
2018-10-18T19:46:02.494Z,12.70
2018-10-18T19:48:31.380Z,12.70
2018-10-18T19:50:59.303Z,12.70
2018-10-18T19:53:27.184Z,12.70
2018-10-18T19:55:55.252Z,12.60
2018-10-18T19:58:23.131Z,12.60
2018-10-18T20:00:51.298Z,12.60
2018-10-18T20:03:19.307Z,12.60
2018-10-18T20:05:47.498Z,12.60
2018-10-18T20:08:15.739Z,12.50
2018-10-18T20:10:43.530Z,12.50
2018-10-18T20:13:11.871Z,12.40
2018-10-18T20:15:40.323Z,12.50
2018-10-18T20:18:08.629Z,12.40
2018-10-18T20:20:36.938Z,12.50
2018-10-18T20:23:05.391Z,12.50
2018-10-18T20:25:33.503Z,12.40
2018-10-18T20:28:01.494Z,12.40
2018-10-18T20:30:29.496Z,12.40
2018-10-18T20:32:58.342Z,12.40
2018-10-18T20:35:29.323Z,12.40
2018-10-18T20:37:58.688Z,12.40
2018-10-18T20:40:26.683Z,12.30
2018-10-18T20:42:54.527Z,12.40
2018-10-18T20:45:29.117Z,12.40
2018-10-18T20:47:58.730Z,12.40
2018-10-18T20:50:26.303Z,12.30
2018-10-18T20:52:54.374Z,12.30
2018-10-18T20:55:22.423Z,12.30
2018-10-18T20:57:50.665Z,12.40
2018-10-18T21:00:18.668Z,12.30
2018-10-18T21:02:46.865Z,12.20
2018-10-18T21:05:15.290Z,12.20
2018-10-18T21:07:43.542Z,12.20
2018-10-18T21:10:11.604Z,12.20
2018-10-18T21:12:39.483Z,12.20
2018-10-18T21:15:07.613Z,12.20
2018-10-18T21:17:35.552Z,12.10
2018-10-18T21:20:03.628Z,12.10
2018-10-18T21:22:32.657Z,12.10
2018-10-18T21:25:00.689Z,12.10
2018-10-18T21:27:28.786Z,12.10
2018-10-18T21:29:56.843Z,12.10
2018-10-18T21:32:25.027Z,12.10
2018-10-18T21:34:52.993Z,12.20
2018-10-18T21:37:21.124Z,12.20
2018-10-18T21:39:49.261Z,12.20
2018-10-18T21:42:17.283Z,12.20
2018-10-18T21:44:45.894Z,12.20
2018-10-18T21:47:14.520Z,12.10
2018-10-18T21:49:42.507Z,12.10
2018-10-18T21:52:10.769Z,12.20
2018-10-18T21:54:38.624Z,12.20
2018-10-18T21:57:06.662Z,12.20
2018-10-18T21:59:34.607Z,12.20
2018-10-18T22:02:02.405Z,12.10
2018-10-18T22:04:30.567Z,12.10
2018-10-18T22:06:58.912Z,12.20
2018-10-18T22:09:26.775Z,12.10
2018-10-18T22:11:54.549Z,12.10
2018-10-18T22:14:23.435Z,12.20
2018-10-18T22:16:51.521Z,12.10
2018-10-18T22:19:19.914Z,12.10
2018-10-18T22:21:48.127Z,12.10
2018-10-18T22:24:16.145Z,12.10
2018-10-18T22:26:44.248Z,12.10
2018-10-18T22:29:12.295Z,12.10
2018-10-18T22:31:40.664Z,12.10
2018-10-18T22:34:08.738Z,12.10
2018-10-18T22:36:36.850Z,12.10
2018-10-18T22:39:07.689Z,12.00
2018-10-18T22:41:35.662Z,12.00
2018-10-18T22:44:03.712Z,12.00
2018-10-18T22:46:31.852Z,12.00
2018-10-18T22:48:59.950Z,12.00
2018-10-18T22:51:28.129Z,12.00
2018-10-18T22:53:59.489Z,12.00
2018-10-18T22:56:28.457Z,12.00
2018-10-18T22:58:56.461Z,12.00
2018-10-18T23:01:25.749Z,12.00
2018-10-18T23:03:54.024Z,12.00
2018-10-18T23:06:22.391Z,12.00
2018-10-18T23:08:50.204Z,12.00
2018-10-18T23:11:18.635Z,11.90
2018-10-18T23:13:46.821Z,11.90
2018-10-18T23:16:14.843Z,11.80
2018-10-18T23:18:42.619Z,11.80
2018-10-18T23:21:10.653Z,11.80
2018-10-18T23:23:38.632Z,11.80
2018-10-18T23:26:06.627Z,11.80
2018-10-18T23:28:34.777Z,11.80
2018-10-18T23:31:02.713Z,11.80
2018-10-18T23:33:30.910Z,11.80
2018-10-18T23:35:59.100Z,11.80
2018-10-18T23:38:27.289Z,11.80
2018-10-18T23:40:55.130Z,11.70
2018-10-18T23:43:23.067Z,11.70
2018-10-18T23:45:53.174Z,11.70
2018-10-18T23:48:21.695Z,11.70
2018-10-18T23:50:50.434Z,11.70
2018-10-18T23:53:18.348Z,11.70
2018-10-18T23:55:46.269Z,11.70
2018-10-18T23:58:14.329Z,11.70
